createdAt,value
2023-03-20T00:01:56.754Z,99961.13
2023-03-20T00:04:23.150Z,99966.75
2023-03-20T00:06:49.547Z,99970.72
2023-03-20T00:09:15.927Z,99976.66
2023-03-20T00:11:50.847Z,99973.69
2023-03-20T00:14:20.518Z,99974.63
2023-03-20T00:16:48.940Z,99977.59
2023-03-20T00:19:18.638Z,99979.25
2023-03-20T00:21:46.575Z,99980.84
2023-03-20T00:24:13.972Z,99975.69
2023-03-20T00:26:40.655Z,99980.38
2023-03-20T00:29:08.121Z,99970.50
2023-03-20T00:31:36.754Z,99972.88
2023-03-20T00:34:06.474Z,99978.34
2023-03-20T00:36:33.479Z,99974.88
2023-03-20T00:38:59.971Z,99976.72
2023-03-20T00:41:31.315Z,99974.41
2023-03-20T00:44:05.193Z,99962.97
2023-03-20T00:46:38.266Z,99969.09
2023-03-20T00:49:04.762Z,99957.97
2023-03-20T00:51:31.543Z,99970.09
2023-03-20T00:53:58.344Z,99973.91
2023-03-20T00:56:32.300Z,99970.44
2023-03-20T00:59:01.370Z,99968.94
2023-03-20T01:01:28.972Z,99970.94
2023-03-20T01:03:55.347Z,99972.59
2023-03-20T01:06:21.887Z,99975.56
2023-03-20T01:08:48.778Z,99966.91
2023-03-20T01:11:18.576Z,99975.06
2023-03-20T01:13:44.968Z,99973.03
2023-03-20T01:16:21.109Z,99971.75
2023-03-20T01:18:48.138Z,99966.91
2023-03-20T01:21:14.537Z,99962.09
2023-03-20T01:23:40.889Z,99954.66
2023-03-20T01:26:30.945Z,99964.25
2023-03-20T01:28:57.269Z,99962.94
2023-03-20T01:31:23.829Z,99961.41
2023-03-20T01:33:50.436Z,99959.88
2023-03-20T01:36:21.514Z,99965.19
2023-03-20T01:38:54.211Z,99960.59
2023-03-20T01:41:23.048Z,99966.00
2023-03-20T01:43:49.623Z,99965.69
2023-03-20T01:46:28.395Z,99967.81
2023-03-20T01:49:05.662Z,99968.06
2023-03-20T01:51:33.029Z,99961.75
2023-03-20T01:54:08.306Z,99964.41
2023-03-20T01:56:44.211Z,99966.66
2023-03-20T01:59:16.964Z,99959.06
2023-03-20T02:01:44.528Z,99962.19
2023-03-20T02:04:13.984Z,99963.34
2023-03-20T02:06:44.844Z,99959.69
2023-03-20T02:09:11.936Z,99964.34
2023-03-20T02:11:40.213Z,99957.66
2023-03-20T02:14:08.450Z,99961.13
2023-03-20T02:16:34.871Z,99956.69
2023-03-20T02:19:01.756Z,99960.00
2023-03-20T02:21:47.223Z,99959.34
2023-03-20T02:24:54.494Z,99961.78
2023-03-20T02:27:35.839Z,99967.59
2023-03-20T02:30:27.471Z,99967.59
2023-03-20T02:33:47.966Z,99967.59
2023-03-20T02:36:45.607Z,99960.00
2023-03-20T02:39:33.874Z,99964.03
2023-03-20T02:42:11.628Z,99958.41
2023-03-20T02:44:50.170Z,99962.69
2023-03-20T02:47:26.492Z,99963.34
2023-03-20T02:50:03.498Z,99961.38
2023-03-20T02:53:10.523Z,99963.34
2023-03-20T02:55:47.958Z,99971.28
2023-03-20T02:58:25.909Z,99970.16
2023-03-20T03:01:03.625Z,99964.03
2023-03-20T03:03:38.392Z,99959.06
2023-03-20T03:06:10.790Z,99966.03
2023-03-20T03:08:42.409Z,99964.66
2023-03-20T03:11:10.139Z,99960.09
2023-03-20T03:13:41.040Z,99958.22
2023-03-20T03:16:14.119Z,99959.53
2023-03-20T03:18:42.909Z,99964.53
2023-03-20T03:21:13.556Z,99968.00
2023-03-20T03:23:45.282Z,99955.44
2023-03-20T03:26:18.628Z,99956.41
2023-03-20T03:28:48.505Z,99951.25
2023-03-20T03:31:17.549Z,99948.38
2023-03-20T03:33:48.137Z,99952.22
2023-03-20T03:36:25.388Z,99945.75
2023-03-20T03:39:12.400Z,99948.25
2023-03-20T03:41:45.343Z,99952.03
2023-03-20T03:44:25.960Z,99954.50
2023-03-20T03:47:14.933Z,99949.03
2023-03-20T03:49:49.004Z,99962.19
2023-03-20T03:52:22.392Z,99968.00
2023-03-20T03:54:53.499Z,99958.22
2023-03-20T03:57:28.451Z,99954.63
2023-03-20T03:59:57.987Z,99957.56
2023-03-20T04:02:24.754Z,99960.53
2023-03-20T04:04:53.853Z,99963.91
2023-03-20T04:07:21.435Z,99957.59
2023-03-20T04:09:47.774Z,99953.50
2023-03-20T04:12:40.140Z,99971.56
2023-03-20T04:15:07.336Z,99952.16
2023-03-20T04:17:34.154Z,99961.56
2023-03-20T04:20:00.982Z,99971.88
2023-03-20T04:22:27.610Z,99977.16
2023-03-20T04:24:53.985Z,99971.22
2023-03-20T04:27:20.957Z,99968.44
2023-03-20T04:29:47.672Z,99959.63
2023-03-20T04:32:14.076Z,99972.88
2023-03-20T04:34:40.615Z,99965.78
2023-03-20T04:37:08.388Z,99971.56
2023-03-20T04:39:36.648Z,99974.88
2023-03-20T04:42:04.652Z,99968.59
2023-03-20T04:44:31.331Z,99975.72
2023-03-20T04:46:58.006Z,99970.09
2023-03-20T04:49:24.499Z,99970.09
2023-03-20T04:51:50.905Z,99962.00
2023-03-20T04:54:17.236Z,99976.75
2023-03-20T04:56:43.609Z,99981.22
2023-03-20T04:59:09.976Z,99978.56
2023-03-20T05:01:36.330Z,99986.84
2023-03-20T05:04:02.720Z,99992.13
2023-03-20T05:06:29.789Z,99986.53
2023-03-20T05:08:56.457Z,99993.50
2023-03-20T05:11:22.820Z,99984.56
2023-03-20T05:13:49.157Z,99990.53
2023-03-20T05:16:15.589Z,99989.69
2023-03-20T05:18:42.042Z,99996.81
2023-03-20T05:21:08.720Z,100003.94
2023-03-20T05:23:35.362Z,100003.81
2023-03-20T05:26:01.840Z,100015.75
2023-03-20T05:28:28.254Z,100007.34
2023-03-20T05:30:54.772Z,100011.47
2023-03-20T05:33:21.417Z,100003.94
2023-03-20T05:35:48.000Z,100013.22
2023-03-20T05:38:14.505Z,100013.22
2023-03-20T05:40:41.922Z,100015.88
2023-03-20T05:43:08.449Z,100017.91
2023-03-20T05:45:35.022Z,100023.22
2023-03-20T05:48:01.567Z,100026.88
2023-03-20T05:50:27.915Z,100028.59
2023-03-20T05:52:54.332Z,100038.91
2023-03-20T05:55:20.732Z,100032.91
2023-03-20T05:57:47.073Z,100036.56
2023-03-20T06:00:13.997Z,100039.41
2023-03-20T06:02:40.393Z,100032.59
2023-03-20T06:05:06.940Z,100046.22
2023-03-20T06:07:33.371Z,100036.63
2023-03-20T06:09:59.738Z,100041.25
2023-03-20T06:12:26.133Z,100040.94
2023-03-20T06:14:52.490Z,100047.06
2023-03-20T06:17:18.858Z,100045.25
2023-03-20T06:19:45.561Z,100049.25
2023-03-20T06:22:12.110Z,100054.88
2023-03-20T06:24:38.633Z,100053.53
2023-03-20T06:27:05.165Z,100050.91
2023-03-20T06:29:31.666Z,100056.03
2023-03-20T06:31:58.046Z,100053.53
2023-03-20T06:34:24.409Z,100067.47
2023-03-20T06:36:50.983Z,100063.00
2023-03-20T06:39:17.686Z,100061.34
2023-03-20T06:41:44.033Z,100059.88
2023-03-20T06:44:10.789Z,100065.19
2023-03-20T06:46:37.258Z,100062.34
2023-03-20T06:49:03.844Z,100057.59
2023-03-20T06:51:30.590Z,100054.44
2023-03-20T06:53:57.045Z,100053.78
2023-03-20T06:56:23.561Z,100053.47
2023-03-20T06:58:49.918Z,100059.16
2023-03-20T07:01:17.752Z,100054.00
2023-03-20T07:03:45.017Z,100055.38
2023-03-20T07:06:12.220Z,100049.06
2023-03-20T07:08:39.944Z,100051.25
2023-03-20T07:11:06.700Z,100040.78
2023-03-20T07:13:33.438Z,100037.63
2023-03-20T07:16:05.287Z,100033.19
2023-03-20T07:18:32.403Z,100047.81
2023-03-20T07:21:02.337Z,100042.81
2023-03-20T07:23:29.646Z,100038.84
2023-03-20T07:25:56.495Z,100047.16
2023-03-20T07:28:22.864Z,100050.16
2023-03-20T07:30:49.381Z,100053.97
2023-03-20T07:33:15.768Z,100060.47
2023-03-20T07:35:42.672Z,100070.28
2023-03-20T07:38:09.287Z,100063.81
2023-03-20T07:40:35.656Z,100062.81
2023-03-20T07:43:02.063Z,100067.47
2023-03-20T07:45:28.507Z,100067.78
2023-03-20T07:47:55.185Z,100060.81
2023-03-20T07:50:21.542Z,100068.13
2023-03-20T07:52:49.377Z,100067.66
2023-03-20T07:55:18.465Z,100078.31
2023-03-20T07:57:45.001Z,100088.44
2023-03-20T08:00:12.115Z,100077.13
2023-03-20T08:02:38.496Z,100080.59
2023-03-20T08:05:05.932Z,100087.75
2023-03-20T08:07:32.502Z,100085.44
2023-03-20T08:09:59.005Z,100094.06
2023-03-20T08:12:25.402Z,100075.78
2023-03-20T08:14:52.304Z,100091.75
2023-03-20T08:17:21.725Z,100087.25
2023-03-20T08:19:48.321Z,100085.75
2023-03-20T08:22:14.710Z,100086.78
2023-03-20T08:24:41.166Z,100089.75
2023-03-20T08:27:07.723Z,100085.09
2023-03-20T08:29:34.131Z,100104.38
2023-03-20T08:32:00.669Z,100092.75
2023-03-20T08:34:27.050Z,100095.41
2023-03-20T08:36:53.498Z,100083.91
2023-03-20T08:39:20.091Z,100096.06
2023-03-20T08:41:46.525Z,100102.41
2023-03-20T08:44:13.800Z,100088.75
2023-03-20T08:46:40.146Z,100090.28
2023-03-20T08:49:07.165Z,100085.59
2023-03-20T08:51:33.687Z,100097.78
2023-03-20T08:54:00.186Z,100099.44
2023-03-20T08:56:26.631Z,100094.13
2023-03-20T08:58:56.199Z,100090.44
2023-03-20T09:01:23.124Z,100096.44
2023-03-20T09:03:49.740Z,100100.41
2023-03-20T09:06:16.103Z,100098.75
2023-03-20T09:11:09.098Z,100100.25
2023-03-20T09:13:35.728Z,100106.06
2023-03-20T09:16:02.350Z,100102.38
2023-03-20T09:18:28.812Z,100115.19
2023-03-20T09:20:56.701Z,100109.41
2023-03-20T09:23:23.439Z,100104.75
2023-03-20T09:25:49.832Z,100100.75
2023-03-20T09:28:16.209Z,100098.75
2023-03-20T09:30:43.678Z,100101.22
2023-03-20T09:33:10.536Z,100096.09
2023-03-20T09:35:37.463Z,100105.38
2023-03-20T09:38:03.885Z,100107.88
2023-03-20T09:40:40.939Z,100113.38
2023-03-20T09:43:18.706Z,100113.03
2023-03-20T09:45:57.922Z,100124.56
2023-03-20T09:48:35.592Z,100108.72
2023-03-20T09:51:17.819Z,100119.03
2023-03-20T09:53:49.768Z,100133.69
2023-03-20T09:56:21.609Z,100123.34
2023-03-20T09:58:59.383Z,100130.69
2023-03-20T10:01:53.842Z,100124.41
2023-03-20T10:04:20.492Z,100124.88
2023-03-20T10:06:47.072Z,100132.53
2023-03-20T10:09:16.392Z,100134.66
2023-03-20T10:12:10.584Z,100132.38
2023-03-20T10:14:49.182Z,100126.88
2023-03-20T10:17:31.986Z,100126.03
2023-03-20T10:20:09.817Z,100129.34
2023-03-20T10:22:40.847Z,100129.66
2023-03-20T10:28:14.151Z,100121.50
2023-03-20T10:30:48.558Z,100122.34
2023-03-20T10:33:30.521Z,100114.97
2023-03-20T10:36:22.974Z,100127.31
2023-03-20T10:39:04.433Z,100122.00
2023-03-20T10:41:37.560Z,100119.34
2023-03-20T10:44:05.905Z,100119.00
2023-03-20T10:46:38.151Z,100113.34
2023-03-20T10:49:12.969Z,100126.97
2023-03-20T10:51:46.438Z,100110.50
2023-03-20T10:54:26.433Z,100132.00
2023-03-20T10:56:56.698Z,100116.69
2023-03-20T10:59:26.497Z,100112.72
2023-03-20T11:01:53.028Z,100111.69
2023-03-20T11:04:19.675Z,100122.00
2023-03-20T11:07:01.512Z,100113.66
2023-03-20T11:09:29.780Z,100116.16
2023-03-20T11:12:02.616Z,100120.00
2023-03-20T11:14:34.831Z,100117.00
2023-03-20T11:17:03.899Z,100141.31
2023-03-20T11:19:38.487Z,100139.34
2023-03-20T11:22:25.402Z,100119.72
2023-03-20T11:24:55.676Z,100119.72
2023-03-20T11:27:27.603Z,100126.53
2023-03-20T11:29:56.540Z,100113.38
2023-03-20T11:32:36.162Z,100118.06
2023-03-20T11:35:19.264Z,100117.06
2023-03-20T11:37:48.189Z,100114.41
2023-03-20T11:40:35.212Z,100108.09
2023-03-20T11:43:01.686Z,100101.09
2023-03-20T11:45:45.225Z,100101.44
2023-03-20T11:48:19.057Z,100097.25
2023-03-20T11:51:01.144Z,100103.41
2023-03-20T11:53:54.336Z,100113.22
2023-03-20T11:56:29.545Z,100100.75
2023-03-20T11:59:12.970Z,100113.38
2023-03-20T12:01:48.742Z,100094.94
2023-03-20T12:04:29.632Z,100090.41
2023-03-20T12:07:04.226Z,100094.41
2023-03-20T12:09:47.628Z,100081.78
2023-03-20T12:12:17.628Z,100082.94
2023-03-20T12:14:56.824Z,100086.75
2023-03-20T12:17:56.316Z,100089.75
2023-03-20T12:20:41.704Z,100080.44
2023-03-20T12:23:41.142Z,100078.09
2023-03-20T12:26:19.678Z,100089.13
2023-03-20T12:29:06.512Z,100081.78
2023-03-20T12:31:48.251Z,100081.28
2023-03-20T12:34:38.035Z,100081.13
2023-03-20T12:37:04.429Z,100077.78
2023-03-20T12:39:38.614Z,100078.97
2023-03-20T12:42:51.306Z,100088.75
2023-03-20T12:45:23.569Z,100078.78
2023-03-20T12:48:11.969Z,100073.78
2023-03-20T12:50:44.968Z,100072.44
2023-03-20T12:53:31.438Z,100059.84
2023-03-20T12:56:14.888Z,100069.63
2023-03-20T12:58:45.322Z,100080.13
2023-03-20T13:01:21.093Z,100064.44
2023-03-20T13:04:06.528Z,100073.25
2023-03-20T13:06:46.424Z,100069.78
2023-03-20T13:09:45.307Z,100052.84
2023-03-20T13:12:14.715Z,100055.16
2023-03-20T13:14:53.299Z,100049.47
2023-03-20T13:17:36.170Z,100047.44
2023-03-20T13:20:29.365Z,100047.44
2023-03-20T13:23:17.590Z,100052.13
2023-03-20T13:25:53.792Z,100041.50
2023-03-20T13:28:26.937Z,100041.84
2023-03-20T13:31:01.062Z,100038.16
2023-03-20T13:33:53.504Z,100041.34
2023-03-20T13:36:35.073Z,100044.50
2023-03-20T13:39:14.646Z,100037.22
2023-03-20T13:41:42.338Z,100027.25
2023-03-20T13:44:11.300Z,100033.91
2023-03-20T13:47:03.723Z,100028.91
2023-03-20T13:49:37.583Z,100027.75
2023-03-20T13:52:15.579Z,100026.25
2023-03-20T13:55:01.868Z,100022.22
2023-03-20T13:57:54.307Z,100033.34
2023-03-20T14:00:49.975Z,100042.53
2023-03-20T14:03:24.999Z,100030.56
2023-03-20T14:05:52.208Z,100025.91
2023-03-20T14:08:27.634Z,100024.59
2023-03-20T14:11:12.152Z,100026.25
2023-03-20T14:13:39.350Z,100028.22
2023-03-20T14:16:10.533Z,100025.91
2023-03-20T14:18:37.937Z,100015.25
2023-03-20T14:21:12.914Z,100020.59
2023-03-20T14:23:46.124Z,100034.56
2023-03-20T14:26:22.836Z,100033.56
2023-03-20T14:29:12.278Z,100022.56
2023-03-20T14:31:42.003Z,100025.59
2023-03-20T14:34:11.680Z,100029.91
2023-03-20T14:36:57.169Z,100036.72
2023-03-20T14:39:34.661Z,100029.22
2023-03-20T14:42:38.912Z,100030.19
2023-03-20T14:45:38.555Z,100038.81
2023-03-20T14:48:26.757Z,100034.47
2023-03-20T14:51:04.792Z,100037.59
2023-03-20T14:53:33.292Z,100025.13
2023-03-20T14:56:09.999Z,100032.63
2023-03-20T14:58:48.891Z,100019.47
2023-03-20T15:01:28.222Z,100028.47
2023-03-20T15:04:04.896Z,100023.09
2023-03-20T15:06:32.478Z,100031.75
2023-03-20T15:09:04.691Z,100030.91
2023-03-20T15:11:31.656Z,100039.66
2023-03-20T15:13:59.943Z,100043.25
2023-03-20T15:16:29.858Z,100041.13
2023-03-20T15:18:56.626Z,100035.94
2023-03-20T15:21:34.920Z,100036.56
2023-03-20T15:24:01.673Z,100039.91
2023-03-20T15:26:29.728Z,100038.22
2023-03-20T15:29:01.426Z,100028.66
2023-03-20T15:31:34.535Z,100031.94
2023-03-20T15:34:04.566Z,100029.59
2023-03-20T15:36:35.409Z,100028.97
2023-03-20T15:39:22.387Z,100023.66
2023-03-20T15:41:55.853Z,100028.91
2023-03-20T15:44:27.319Z,100027.38
2023-03-20T15:47:02.692Z,100019.81
2023-03-20T15:49:31.843Z,100018.78
2023-03-20T15:52:05.554Z,100026.25
2023-03-20T15:54:33.161Z,100021.09
2023-03-20T15:57:03.119Z,100016.44
2023-03-20T15:59:33.078Z,100029.59
2023-03-20T16:02:00.923Z,100027.91
2023-03-20T16:04:27.790Z,100025.94
2023-03-20T16:06:56.921Z,100028.22
2023-03-20T16:09:24.225Z,100025.72
2023-03-20T16:12:03.257Z,100022.91
2023-03-20T16:14:34.429Z,100021.94
2023-03-20T16:17:03.808Z,100029.59
2023-03-20T16:19:30.609Z,100020.94
2023-03-20T16:22:01.140Z,100033.91
2023-03-20T16:24:36.531Z,100020.31
2023-03-20T16:27:08.136Z,100028.97
2023-03-20T16:29:35.785Z,100020.84
2023-03-20T16:32:05.887Z,100030.31
2023-03-20T16:34:37.773Z,100028.34
2023-03-20T16:37:21.762Z,100030.63
2023-03-20T16:39:48.136Z,100027.00
2023-03-20T16:42:24.364Z,100032.31
2023-03-20T16:44:56.536Z,100018.66
2023-03-20T16:47:32.975Z,100029.81
2023-03-20T16:50:26.102Z,100023.97
2023-03-20T16:52:58.281Z,100024.81
2023-03-20T16:55:29.243Z,100025.63
2023-03-20T16:57:59.273Z,100019.00
2023-03-20T17:00:28.657Z,100027.59
2023-03-20T17:02:59.805Z,100024.81
2023-03-20T17:05:41.274Z,100028.16
2023-03-20T17:08:13.648Z,100022.84
2023-03-20T17:10:43.534Z,100022.97
2023-03-20T17:13:09.973Z,100023.97
2023-03-20T17:15:36.373Z,100022.28
2023-03-20T17:18:04.260Z,100027.28
2023-03-20T17:20:33.477Z,100024.31
2023-03-20T17:22:59.886Z,100024.94
2023-03-20T17:25:26.436Z,100022.28
2023-03-20T17:27:52.845Z,100022.97
2023-03-20T17:30:25.381Z,100020.66
2023-03-20T17:32:51.915Z,100029.28
2023-03-20T17:35:18.327Z,100032.25
2023-03-20T17:37:44.865Z,100026.78
2023-03-20T17:40:19.241Z,100024.94
2023-03-20T17:42:46.340Z,100022.47
2023-03-20T17:45:15.028Z,100020.00
2023-03-20T17:47:42.539Z,100016.00
2023-03-20T17:50:17.756Z,100015.34
2023-03-20T17:52:44.530Z,100013.03
2023-03-20T17:55:10.986Z,100011.03
2023-03-20T17:57:39.219Z,100021.25
2023-03-20T18:00:20.358Z,100016.41
2023-03-20T18:02:46.963Z,100012.09
2023-03-20T18:05:13.418Z,100016.56
2023-03-20T18:07:39.953Z,100018.53
2023-03-20T18:10:13.442Z,100024.38
2023-03-20T18:12:39.767Z,100016.22
2023-03-20T18:15:06.888Z,100014.59
2023-03-20T18:17:33.286Z,100024.53
2023-03-20T18:19:59.622Z,100026.69
2023-03-20T18:22:26.097Z,100026.81
2023-03-20T18:24:52.455Z,100029.09
2023-03-20T18:27:18.858Z,100026.44
2023-03-20T18:29:45.399Z,100023.97
2023-03-20T18:32:11.771Z,100031.94
2023-03-20T18:34:38.179Z,100024.16
2023-03-20T18:37:07.931Z,100022.84
2023-03-20T18:39:34.370Z,100022.97
2023-03-20T18:42:00.922Z,100019.50
2023-03-20T18:44:27.274Z,100025.84
2023-03-20T18:46:53.653Z,100025.31
2023-03-20T18:49:20.210Z,100025.47
2023-03-20T18:51:46.577Z,100027.31
2023-03-20T18:54:13.016Z,100030.84
2023-03-20T18:56:40.574Z,100043.88
2023-03-20T18:59:08.053Z,100046.66
2023-03-20T19:01:35.682Z,100048.25
2023-03-20T19:04:02.283Z,100041.59
2023-03-20T19:06:31.888Z,100050.69
2023-03-20T19:08:58.238Z,100045.50
2023-03-20T19:11:24.789Z,100049.19
2023-03-20T19:13:52.909Z,100051.66
2023-03-20T19:16:26.196Z,100048.31
2023-03-20T19:18:54.348Z,100039.00
2023-03-20T19:21:26.217Z,100038.56
2023-03-20T19:23:57.817Z,100037.38
2023-03-20T19:26:26.630Z,100035.72
2023-03-20T19:28:55.102Z,100034.06
2023-03-20T19:31:22.169Z,100032.06
2023-03-20T19:33:49.217Z,100025.13
2023-03-20T19:36:31.730Z,100035.41
2023-03-20T19:39:00.112Z,100023.97
2023-03-20T19:41:28.653Z,100026.78
2023-03-20T19:43:56.139Z,100020.50
2023-03-20T19:46:38.647Z,100017.31
2023-03-20T19:49:09.526Z,100020.94
2023-03-20T19:51:35.940Z,100031.56
2023-03-20T19:54:02.287Z,100028.78
2023-03-20T19:56:28.627Z,100025.75
2023-03-20T19:58:55.043Z,100026.75
2023-03-20T20:01:24.981Z,100027.38
2023-03-20T20:03:53.454Z,100024.84
2023-03-20T20:06:22.219Z,100016.38
2023-03-20T20:08:49.791Z,100014.19
2023-03-20T20:11:18.351Z,100011.03
2023-03-20T20:14:04.686Z,100015.63
2023-03-20T20:16:32.535Z,100012.63
2023-03-20T20:18:58.971Z,100013.97
2023-03-20T20:22:13.191Z,100010.94
2023-03-20T20:24:12.312Z,100006.59
2023-03-20T20:26:45.613Z,100010.53
2023-03-20T20:29:18.882Z,100005.25
2023-03-20T20:31:45.319Z,100005.84
2023-03-20T20:37:56.462Z,100012.81
2023-03-20T20:39:45.857Z,100008.13
2023-03-20T20:42:12.427Z,100005.47
2023-03-20T20:44:39.700Z,100005.09
2023-03-20T20:47:06.419Z,100009.78
2023-03-20T20:49:32.955Z,100015.09
2023-03-20T20:51:59.478Z,100003.66
2023-03-20T20:54:27.052Z,100000.88
2023-03-20T20:56:53.652Z,100001.16
2023-03-20T20:59:20.003Z,99997.53
2023-03-20T21:01:46.713Z,99996.53
2023-03-20T21:04:13.464Z,100009.47
2023-03-20T21:07:06.167Z,100004.16
2023-03-20T21:09:27.088Z,100005.53
2023-03-20T21:11:53.419Z,100007.50
2023-03-20T21:14:20.036Z,100008.50
2023-03-20T21:16:46.409Z,100011.16
2023-03-20T21:19:12.759Z,100014.19
2023-03-20T21:21:40.518Z,100009.16
2023-03-20T21:24:30.593Z,100005.03
2023-03-20T21:27:01.106Z,100011.16
2023-03-20T21:29:27.687Z,100008.66
2023-03-20T21:31:54.185Z,100007.81
2023-03-20T21:34:20.741Z,100012.81
2023-03-20T21:36:49.134Z,100008.66
2023-03-20T21:39:16.427Z,100017.50
2023-03-20T21:41:42.821Z,100013.03
2023-03-20T21:44:16.617Z,100019.19
2023-03-20T21:47:48.526Z,100013.88
2023-03-20T21:53:00.472Z,100015.53
2023-03-20T21:56:00.000Z,100023.31
2023-03-20T22:03:52.010Z,100023.09
2023-03-20T22:07:13.237Z,100024.50
2023-03-20T22:12:22.998Z,100027.28
2023-03-20T22:17:53.138Z,100024.53
2023-03-20T22:31:53.843Z,100042.13
2023-03-20T22:34:34.820Z,100034.78
2023-03-20T22:37:31.661Z,100036.53
2023-03-20T22:42:49.628Z,100046.59
2023-03-20T22:45:08.751Z,100046.88
2023-03-20T22:47:35.945Z,100040.31
2023-03-20T22:50:02.470Z,100053.56
2023-03-20T22:52:38.330Z,100040.63
2023-03-20T22:55:09.677Z,100041.59
2023-03-20T22:57:45.489Z,100028.47
2023-03-20T23:00:18.404Z,100032.38
2023-03-20T23:02:45.113Z,100030.03
2023-03-20T23:05:11.877Z,100028.81
2023-03-20T23:07:38.346Z,100031.59
2023-03-20T23:10:06.205Z,100023.00
2023-03-20T23:12:32.887Z,100019.66
2023-03-20T23:14:59.339Z,100021.59
2023-03-20T23:17:26.961Z,100028.13
2023-03-20T23:20:05.095Z,100032.16
2023-03-20T23:22:35.249Z,100030.69
2023-03-20T23:25:12.232Z,100032.72
2023-03-20T23:27:41.149Z,100023.59
2023-03-20T23:30:08.257Z,100023.81
2023-03-20T23:32:39.429Z,100032.81
2023-03-20T23:35:07.534Z,100032.81
2023-03-20T23:37:34.949Z,100036.69
2023-03-20T23:40:01.532Z,100023.59
2023-03-20T23:42:30.877Z,100025.03
2023-03-20T23:45:02.123Z,100029.47
2023-03-20T23:47:44.392Z,100027.22
2023-03-20T23:50:20.761Z,100023.28
2023-03-20T23:53:00.961Z,100026.25
2023-03-20T23:55:30.411Z,100015.25
2023-03-20T23:57:56.851Z,100018.31
